Time;durP1;ratioP1;P1;durP2;ratioP2;P2;SDS_P1;SDS_P2;PMS_P1;PMS_P2;Temp;Humidity;BMP_temperature;BMP_pressure;BME280_temperature;BME280_humidity;BME280_pressure;Samples;Min_cycle;Max_cycle;Signal;HPM_P1;HPM_P2
2023/06/24 00:01:40;;;;;;;57.30;3.33;;;;;;;;;;5034484;28;20472;-69
2023/06/24 00:04:07;;;;;;;57.30;2.87;;;;;;;;;;5034203;28;20479;-70
2023/06/24 00:06:34;;;;;;;57.43;3.33;;;;;;;;;;5034185;28;20471;-70
2023/06/24 00:09:03;;;;;;;57.33;2.70;;;;;;;;;;5033503;28;20445;-70
2023/06/24 00:11:30;;;;;;;57.63;2.83;;;;;;;;;;5034294;28;20453;-70
2023/06/24 00:13:58;;;;;;;57.23;2.63;;;;;;;;;;5034155;28;20469;-70
2023/06/24 00:16:27;;;;;;;57.07;2.40;;;;;;;;;;5034109;28;20833;-69
2023/06/24 00:18:54;;;;;;;57.27;2.70;;;;;;;;;;5033199;28;20946;-69
2023/06/24 00:21:22;;;;;;;57.30;2.40;;;;;;;;;;5034024;28;20811;-69
2023/06/24 00:23:49;;;;;;;57.13;2.60;;;;;;;;;;5033811;28;20483;-70
2023/06/24 00:26:18;;;;;;;59.60;3.23;;;;;;;;;;5033782;28;20488;-69
2023/06/24 00:28:45;;;;;;;57.33;2.63;;;;;;;;;;5033374;28;20820;-70
2023/06/24 00:31:12;;;;;;;57.30;2.57;;;;;;;;;;5033918;28;20456;-69
2023/06/24 00:33:39;;;;;;;56.87;2.20;;;;;;;;;;5033774;28;20837;-70
2023/06/24 00:36:08;;;;;;;57.17;2.50;;;;;;;;;;5033716;28;20451;-69
2023/06/24 00:38:35;;;;;;;56.93;2.20;;;;;;;;;;5044880;28;20464;-69
2023/06/24 00:41:03;;;;;;;57.03;2.33;;;;;;;;;;5053275;28;20458;-70
2023/06/24 00:43:31;;;;;;;56.97;2.20;;;;;;;;;;5053397;28;20468;-69
2023/06/24 00:45:58;;;;;;;57.50;2.60;;;;;;;;;;5038790;28;20489;-70
2023/06/24 00:48:26;;;;;;;57.40;2.30;;;;;;;;;;5033514;28;20459;-70
2023/06/24 00:50:53;;;;;;;57.10;2.50;;;;;;;;;;5033183;28;20449;-69
2023/06/24 00:53:24;;;;;;;57.17;2.33;;;;;;;;;;5033523;28;20650;-69
2023/06/24 00:55:52;;;;;;;57.10;2.30;;;;;;;;;;5033361;28;20515;-70
2023/06/24 00:58:20;;;;;;;57.73;2.90;;;;;;;;;;5033518;28;20481;-69
2023/06/24 01:00:56;;;;;;;57.00;2.30;;;;;;;;;;5032658;28;20544;-70
2023/06/24 01:03:24;;;;;;;57.07;2.60;;;;;;;;;;5033133;28;20484;-69
2023/06/24 01:05:52;;;;;;;56.93;2.50;;;;;;;;;;5032856;28;20910;-69
2023/06/24 01:08:22;;;;;;;57.77;3.33;;;;;;;;;;5033265;28;20452;-69
2023/06/24 01:10:49;;;;;;;57.00;2.30;;;;;;;;;;5032577;28;20492;-70
2023/06/24 01:13:17;;;;;;;57.20;2.47;;;;;;;;;;5032865;28;20465;-69
2023/06/24 01:15:44;;;;;;;57.60;2.90;;;;;;;;;;5052828;28;20452;-70
2023/06/24 01:18:15;;;;;;;57.23;2.57;;;;;;;;;;5052741;28;20455;-69
2023/06/24 01:20:46;;;;;;;57.00;2.40;;;;;;;;;;5052468;28;20441;-69
2023/06/24 01:23:22;;;;;;;56.77;2.47;;;;;;;;;;5052690;28;20464;-69
2023/06/24 01:26:10;;;;;;;57.03;2.83;;;;;;;;;;5052478;28;20980;-69
2023/06/24 01:28:48;;;;;;;57.07;2.77;;;;;;;;;;5047131;28;20551;-69
2023/06/24 01:31:33;;;;;;;57.40;2.27;;;;;;;;;;5052799;28;20869;-69
2023/06/24 01:34:03;;;;;;;57.00;2.40;;;;;;;;;;5052565;28;20468;-69
2023/06/24 01:36:31;;;;;;;57.20;2.43;;;;;;;;;;5049094;28;20436;-70
2023/06/24 01:39:02;;;;;;;57.10;2.70;;;;;;;;;;5051699;28;20460;-69
2023/06/24 01:41:33;;;;;;;57.53;3.17;;;;;;;;;;5052660;28;20440;-69
2023/06/24 01:44:01;;;;;;;57.07;2.30;;;;;;;;;;5052400;28;20518;-69
2023/06/24 01:46:29;;;;;;;57.20;2.30;;;;;;;;;;5052301;28;20491;-69
2023/06/24 01:49:01;;;;;;;57.00;2.53;;;;;;;;;;5051818;28;20482;-69
2023/06/24 01:51:29;;;;;;;57.17;3.00;;;;;;;;;;5052098;28;20840;-69
2023/06/24 01:53:59;;;;;;;56.97;2.30;;;;;;;;;;5052081;28;20496;-69
2023/06/24 01:56:27;;;;;;;56.93;2.30;;;;;;;;;;5051487;28;20451;-69
2023/06/24 01:58:56;;;;;;;57.03;2.20;;;;;;;;;;5050936;28;20464;-69
2023/06/24 02:01:24;;;;;;;59.30;2.57;;;;;;;;;;5052216;28;20510;-69
2023/06/24 02:03:51;;;;;;;57.30;2.47;;;;;;;;;;5052173;28;20464;-69
2023/06/24 02:06:21;;;;;;;57.07;2.47;;;;;;;;;;5051905;28;20496;-70
2023/06/24 02:08:50;;;;;;;57.57;2.77;;;;;;;;;;5051224;28;20490;-69
2023/06/24 02:11:18;;;;;;;56.97;2.10;;;;;;;;;;5051766;28;20956;-69
2023/06/24 02:13:45;;;;;;;57.47;2.60;;;;;;;;;;5051588;28;20486;-69
2023/06/24 02:16:14;;;;;;;57.27;2.40;;;;;;;;;;5051597;28;20953;-70
2023/06/24 02:18:42;;;;;;;57.17;2.70;;;;;;;;;;5050754;28;20459;-69
2023/06/24 02:21:09;;;;;;;57.13;2.30;;;;;;;;;;5051637;28;20501;-69
2023/06/24 02:23:38;;;;;;;57.17;2.27;;;;;;;;;;5051443;28;20472;-69
2023/06/24 02:26:06;;;;;;;57.03;2.40;;;;;;;;;;5051193;28;20488;-69
2023/06/24 02:28:34;;;;;;;57.03;2.30;;;;;;;;;;5051582;28;20541;-69
2023/06/24 02:31:01;;;;;;;57.27;2.73;;;;;;;;;;5051752;28;20452;-69
2023/06/24 02:33:28;;;;;;;57.07;2.13;;;;;;;;;;5051352;28;20992;-69
2023/06/24 02:35:56;;;;;;;57.13;2.40;;;;;;;;;;5051241;28;20905;-69
2023/06/24 02:38:23;;;;;;;57.30;2.77;;;;;;;;;;5049078;28;20452;-69
2023/06/24 02:40:52;;;;;;;57.13;2.30;;;;;;;;;;5050656;28;20451;-69
2023/06/24 02:43:19;;;;;;;57.40;2.40;;;;;;;;;;5047616;28;20468;-69
2023/06/24 02:45:48;;;;;;;57.07;2.40;;;;;;;;;;5039019;28;20477;-69
2023/06/24 02:48:17;;;;;;;56.87;2.40;;;;;;;;;;5043295;28;20969;-69
2023/06/24 02:50:45;;;;;;;57.17;2.20;;;;;;;;;;5030632;28;20960;-69
2023/06/24 02:53:12;;;;;;;57.30;2.70;;;;;;;;;;5031314;28;20469;-69
2023/06/24 02:55:40;;;;;;;57.40;2.83;;;;;;;;;;5031083;28;20457;-69
2023/06/24 02:58:09;;;;;;;58.00;3.30;;;;;;;;;;5031164;28;20455;-69
2023/06/24 03:00:37;;;;;;;57.07;2.37;;;;;;;;;;5030721;28;20449;-69
2023/06/24 03:03:05;;;;;;;57.40;2.93;;;;;;;;;;5031339;28;20818;-69
2023/06/24 03:05:33;;;;;;;56.90;2.20;;;;;;;;;;5030863;28;21008;-69
2023/06/24 03:08:00;;;;;;;56.97;2.30;;;;;;;;;;5030879;28;20483;-69
2023/06/24 03:10:27;;;;;;;57.30;2.50;;;;;;;;;;5030591;28;20456;-69
2023/06/24 03:12:55;;;;;;;57.13;2.33;;;;;;;;;;5031306;28;20826;-69
2023/06/24 03:15:23;;;;;;;57.40;2.80;;;;;;;;;;5031107;28;20456;-70
2023/06/24 03:17:51;;;;;;;57.70;2.83;;;;;;;;;;5031060;28;20451;-69
2023/06/24 03:20:19;;;;;;;57.07;2.93;;;;;;;;;;5030703;28;20447;-69
2023/06/24 03:22:46;;;;;;;56.93;2.40;;;;;;;;;;5030993;28;20877;-69
2023/06/24 03:25:13;;;;;;;56.97;2.20;;;;;;;;;;5031083;28;20445;-69
2023/06/24 03:27:40;;;;;;;57.30;2.40;;;;;;;;;;5030976;28;20445;-69
2023/06/24 03:30:08;;;;;;;57.80;3.00;;;;;;;;;;5030269;28;20464;-69
2023/06/24 03:32:36;;;;;;;57.80;3.37;;;;;;;;;;5030719;28;20942;-68
2023/06/24 03:35:04;;;;;;;57.50;2.60;;;;;;;;;;5030705;28;20469;-69
2023/06/24 03:37:31;;;;;;;57.20;2.40;;;;;;;;;;5031028;28;20523;-69
2023/06/24 03:39:58;;;;;;;57.70;3.73;;;;;;;;;;5030281;28;20449;-69
2023/06/24 03:42:25;;;;;;;60.50;3.23;;;;;;;;;;5030795;28;20445;-69
2023/06/24 03:44:52;;;;;;;57.50;2.93;;;;;;;;;;5030570;28;21020;-69
2023/06/24 03:47:20;;;;;;;57.30;2.97;;;;;;;;;;5030443;28;20492;-69
2023/06/24 03:49:48;;;;;;;57.40;2.60;;;;;;;;;;5030243;28;20460;-69
2023/06/24 03:52:15;;;;;;;57.10;2.90;;;;;;;;;;5030614;28;20449;-69
2023/06/24 03:54:42;;;;;;;57.47;2.70;;;;;;;;;;5030669;28;20500;-69
2023/06/24 03:57:09;;;;;;;57.17;2.77;;;;;;;;;;5030446;28;20461;-69
2023/06/24 03:59:36;;;;;;;57.80;3.50;;;;;;;;;;5030009;28;20445;-69
2023/06/24 04:02:07;;;;;;;56.97;2.50;;;;;;;;;;5030481;28;20849;-69
2023/06/24 04:04:34;;;;;;;57.73;3.80;;;;;;;;;;5030794;28;20472;-69
2023/06/24 04:07:03;;;;;;;57.17;2.60;;;;;;;;;;5030525;28;20853;-69
2023/06/24 04:09:30;;;;;;;57.10;2.60;;;;;;;;;;5030067;28;20449;-69
2023/06/24 04:11:57;;;;;;;57.00;2.50;;;;;;;;;;5030528;28;21049;-69
2023/06/24 04:14:24;;;;;;;57.07;2.53;;;;;;;;;;5030551;28;20465;-69
2023/06/24 04:16:52;;;;;;;57.20;2.60;;;;;;;;;;5030608;28;20449;-69
2023/06/24 04:19:19;;;;;;;57.10;2.50;;;;;;;;;;5029711;28;20456;-69
2023/06/24 04:21:46;;;;;;;57.70;2.70;;;;;;;;;;5033213;28;20456;-69
2023/06/24 04:24:14;;;;;;;57.20;2.80;;;;;;;;;;5034142;28;20473;-69
2023/06/24 04:26:41;;;;;;;57.50;2.70;;;;;;;;;;5033887;28;20481;-69
2023/06/24 04:29:08;;;;;;;56.83;2.40;;;;;;;;;;5033164;28;20449;-69
2023/06/24 04:31:35;;;;;;;57.30;3.33;;;;;;;;;;5034065;28;20453;-69
2023/06/24 04:34:02;;;;;;;57.40;2.63;;;;;;;;;;5034088;28;20472;-69
2023/06/24 04:36:30;;;;;;;57.20;2.60;;;;;;;;;;5033853;28;20456;-69
2023/06/24 04:38:57;;;;;;;56.97;2.40;;;;;;;;;;5040191;28;20539;-69
2023/06/24 04:41:25;;;;;;;57.17;2.37;;;;;;;;;;5053287;28;20521;-69
2023/06/24 04:43:52;;;;;;;56.73;2.40;;;;;;;;;;5053279;28;20988;-69
2023/06/24 04:46:20;;;;;;;58.03;3.70;;;;;;;;;;5044819;28;20491;-69
2023/06/24 04:48:47;;;;;;;57.10;2.40;;;;;;;;;;5032985;28;20456;-69
2023/06/24 04:51:14;;;;;;;57.10;2.30;;;;;;;;;;5033499;28;20829;-69
2023/06/24 04:53:41;;;;;;;56.97;2.40;;;;;;;;;;5033269;28;20973;-69
2023/06/24 04:56:08;;;;;;;57.07;2.60;;;;;;;;;;5032989;28;20461;-69
2023/06/24 04:58:37;;;;;;;57.00;2.70;;;;;;;;;;5032758;28;20456;-69
2023/06/24 05:01:04;;;;;;;57.03;2.60;;;;;;;;;;5033615;28;20480;-69
2023/06/24 05:03:31;;;;;;;57.00;3.07;;;;;;;;;;5033321;28;20473;-69
2023/06/24 05:05:58;;;;;;;57.03;2.20;;;;;;;;;;5033054;28;20950;-69
2023/06/24 05:08:25;;;;;;;57.20;2.90;;;;;;;;;;5033132;28;20543;-69
2023/06/24 05:10:53;;;;;;;56.87;2.27;;;;;;;;;;5032371;28;20451;-69
2023/06/24 05:13:20;;;;;;;56.80;2.40;;;;;;;;;;5033270;28;20477;-69
2023/06/24 05:15:48;;;;;;;57.00;2.67;;;;;;;;;;5032881;28;20453;-69
2023/06/24 05:18:15;;;;;;;57.57;2.97;;;;;;;;;;5033144;28;20454;-69
2023/06/24 05:20:43;;;;;;;56.87;2.40;;;;;;;;;;5032267;28;20445;-69
2023/06/24 05:23:10;;;;;;;57.10;2.80;;;;;;;;;;5032886;28;20904;-69
2023/06/24 05:25:37;;;;;;;57.07;2.70;;;;;;;;;;5032932;28;20453;-69
2023/06/24 05:28:04;;;;;;;56.97;2.60;;;;;;;;;;5032622;28;20492;-69
2023/06/24 05:30:32;;;;;;;56.77;2.60;;;;;;;;;;5043551;28;20456;-69
2023/06/24 05:36:03;;;;;;;56.87;2.47;;;;;;;;;;5046000;28;20831;-69
2023/06/24 05:38:31;;;;;;;56.93;2.27;;;;;;;;;;5048817;28;20455;-69
2023/06/24 05:40:58;;;;;;;56.77;2.23;;;;;;;;;;5032360;28;20449;-69
2023/06/24 05:43:25;;;;;;;56.67;2.40;;;;;;;;;;5032461;28;20469;-69
2023/06/24 05:45:52;;;;;;;57.00;2.40;;;;;;;;;;5034166;28;20850;-70
2023/06/24 05:48:19;;;;;;;57.47;3.57;;;;;;;;;;5049088;28;20460;-70
2023/06/24 05:50:46;;;;;;;56.70;2.10;;;;;;;;;;5051700;28;20448;-69
2023/06/24 05:53:15;;;;;;;56.57;2.30;;;;;;;;;;5044554;28;20469;-69
2023/06/24 05:55:42;;;;;;;57.27;2.80;;;;;;;;;;5032287;28;20833;-69
2023/06/24 05:58:09;;;;;;;57.00;2.40;;;;;;;;;;5032193;28;20445;-69
2023/06/24 06:00:36;;;;;;;56.80;2.10;;;;;;;;;;5031533;28;20449;-69
2023/06/24 06:06:06;;;;;;;57.00;2.57;;;;;;;;;;5040279;28;20387;-70
2023/06/24 06:11:38;;;;;;;57.20;2.70;;;;;;;;;;5042441;28;20411;-71
2023/06/24 06:14:05;;;;;;;56.90;2.50;;;;;;;;;;5046240;28;20477;-70
2023/06/24 06:16:33;;;;;;;57.60;3.17;;;;;;;;;;5050390;28;20837;-70
2023/06/24 06:19:00;;;;;;;56.90;2.50;;;;;;;;;;5046203;28;20452;-71
2023/06/24 06:21:27;;;;;;;57.40;3.50;;;;;;;;;;5039446;28;20453;-70
2023/06/24 06:23:54;;;;;;;56.87;2.40;;;;;;;;;;5045187;28;20976;-70
2023/06/24 06:26:21;;;;;;;56.47;2.07;;;;;;;;;;5042760;28;20476;-70
2023/06/24 06:28:49;;;;;;;56.80;2.30;;;;;;;;;;5031101;28;20453;-69
2023/06/24 06:31:17;;;;;;;58.37;3.10;;;;;;;;;;5031787;28;20506;-70
2023/06/24 06:33:44;;;;;;;57.07;2.93;;;;;;;;;;5031562;28;20480;-69
2023/06/24 06:36:11;;;;;;;57.30;2.60;;;;;;;;;;5035692;28;20461;-69
2023/06/24 06:38:38;;;;;;;56.90;2.30;;;;;;;;;;5050075;28;20445;-70
2023/06/24 06:41:06;;;;;;;56.80;2.30;;;;;;;;;;5036429;28;20456;-69
2023/06/24 06:43:33;;;;;;;56.40;2.07;;;;;;;;;;5031121;28;20830;-70
2023/06/24 06:46:02;;;;;;;56.37;2.10;;;;;;;;;;5031660;28;20481;-70
2023/06/24 06:48:29;;;;;;;56.67;2.30;;;;;;;;;;5031297;28;20500;-69
2023/06/24 06:50:56;;;;;;;57.17;2.20;;;;;;;;;;5030608;28;20449;-70
2023/06/24 06:53:23;;;;;;;56.90;2.50;;;;;;;;;;5031141;28;20477;-70
2023/06/24 06:55:50;;;;;;;56.80;2.10;;;;;;;;;;5030981;28;20992;-70
2023/06/24 06:58:17;;;;;;;56.80;2.30;;;;;;;;;;5031302;28;20441;-70
2023/06/24 07:00:44;;;;;;;58.17;3.23;;;;;;;;;;5030512;28;20445;-70
2023/06/24 07:03:12;;;;;;;57.30;2.73;;;;;;;;;;5031377;28;20472;-70
2023/06/24 07:05:40;;;;;;;57.10;2.60;;;;;;;;;;5031300;28;20445;-70
2023/06/24 07:08:07;;;;;;;57.20;2.50;;;;;;;;;;5030860;28;20496;-70
2023/06/24 07:10:34;;;;;;;56.77;2.10;;;;;;;;;;5030661;28;20453;-70
2023/06/24 07:13:02;;;;;;;57.20;2.53;;;;;;;;;;5030951;28;20453;-69
2023/06/24 07:15:29;;;;;;;56.77;2.13;;;;;;;;;;5031034;28;20476;-69
2023/06/24 07:17:56;;;;;;;57.57;2.67;;;;;;;;;;5031049;28;20935;-70
2023/06/24 07:20:24;;;;;;;56.73;2.07;;;;;;;;;;5030568;28;20814;-70
2023/06/24 07:22:52;;;;;;;56.57;2.27;;;;;;;;;;5030725;28;20453;-70
2023/06/24 07:25:19;;;;;;;57.00;2.17;;;;;;;;;;5031294;28;20449;-70
2023/06/24 07:27:46;;;;;;;56.87;2.27;;;;;;;;;;5030985;28;20496;-70
2023/06/24 07:33:16;;;;;;;56.97;2.77;;;;;;;;;;5036717;28;20437;-70
2023/06/24 07:35:45;;;;;;;57.03;2.53;;;;;;;;;;5042530;28;20456;-70
2023/06/24 07:38:12;;;;;;;57.20;2.53;;;;;;;;;;5050635;28;20472;-70
2023/06/24 07:40:39;;;;;;;56.80;2.23;;;;;;;;;;5038911;28;20531;-70
2023/06/24 07:43:06;;;;;;;57.20;2.40;;;;;;;;;;5050605;28;20468;-70
2023/06/24 07:45:33;;;;;;;56.63;2.33;;;;;;;;;;5031773;28;20938;-70
2023/06/24 07:48:00;;;;;;;56.70;1.90;;;;;;;;;;5030786;28;20511;-70
2023/06/24 07:50:27;;;;;;;58.47;2.40;;;;;;;;;;5029847;28;20454;-69
2023/06/24 07:52:56;;;;;;;57.17;2.70;;;;;;;;;;5044048;28;20451;-71
2023/06/24 07:55:23;;;;;;;56.43;2.03;;;;;;;;;;5032902;28;20463;-71
2023/06/24 07:57:50;;;;;;;56.80;2.00;;;;;;;;;;5045390;28;20444;-69
2023/06/24 08:00:17;;;;;;;56.47;2.13;;;;;;;;;;5053258;28;20455;-70
2023/06/24 08:02:44;;;;;;;56.50;2.20;;;;;;;;;;5046492;28;20451;-71
2023/06/24 08:05:11;;;;;;;56.57;2.10;;;;;;;;;;5038634;28;20813;-71
2023/06/24 08:07:39;;;;;;;56.77;2.50;;;;;;;;;;5034393;28;20485;-71
2023/06/24 08:10:08;;;;;;;56.77;2.23;;;;;;;;;;5033423;28;20470;-71
2023/06/24 08:12:35;;;;;;;56.60;2.10;;;;;;;;;;5034385;28;20453;-69
2023/06/24 08:15:02;;;;;;;56.53;2.00;;;;;;;;;;5044240;28;20992;-68
2023/06/24 08:17:29;;;;;;;56.87;2.70;;;;;;;;;;5050153;28;20454;-68
2023/06/24 08:19:56;;;;;;;56.27;1.87;;;;;;;;;;5053022;28;20452;-68
2023/06/24 08:22:23;;;;;;;56.77;1.93;;;;;;;;;;5044605;28;20453;-68
2023/06/24 08:24:50;;;;;;;56.90;2.13;;;;;;;;;;5033764;28;20992;-68
2023/06/24 08:27:22;;;;;;;57.37;2.50;;;;;;;;;;5034132;28;20491;-68
2023/06/24 08:30:07;;;;;;;56.70;2.20;;;;;;;;;;5046249;28;20494;-68
2023/06/24 08:35:19;;;;;;;58.70;2.53;;;;;;;;;;5036786;28;20507;-69
2023/06/24 08:37:46;;;;;;;56.60;2.10;;;;;;;;;;5033689;28;20830;-69
2023/06/24 08:40:14;;;;;;;56.67;1.90;;;;;;;;;;5046528;28;20452;-70
2023/06/24 08:42:42;;;;;;;56.27;2.30;;;;;;;;;;5053571;28;20452;-69
2023/06/24 08:45:10;;;;;;;56.30;1.60;;;;;;;;;;5037965;28;20960;-70
2023/06/24 08:50:46;;;;;;;57.37;3.03;;;;;;;;;;5032808;28;20401;-69
2023/06/24 08:53:14;;;;;;;56.90;2.30;;;;;;;;;;5033370;28;21007;-69
2023/06/24 08:55:43;;;;;;;55.87;1.97;;;;;;;;;;5033235;28;20457;-70
2023/06/24 08:58:12;;;;;;;56.60;2.17;;;;;;;;;;5033740;28;20449;-69
2023/06/24 09:00:39;;;;;;;56.90;2.10;;;;;;;;;;5032526;28;20985;-69
2023/06/24 09:03:06;;;;;;;56.77;2.43;;;;;;;;;;5033250;28;20471;-70
2023/06/24 09:05:33;;;;;;;56.57;1.90;;;;;;;;;;5033187;28;20457;-70
2023/06/24 09:08:01;;;;;;;56.47;1.90;;;;;;;;;;5032804;28;20489;-69
2023/06/24 09:10:32;;;;;;;56.90;2.50;;;;;;;;;;5032774;28;20445;-69
2023/06/24 09:12:59;;;;;;;56.47;2.00;;;;;;;;;;5032892;28;21019;-70
2023/06/24 09:15:30;;;;;;;56.03;1.80;;;;;;;;;;5032767;28;20934;-69
2023/06/24 09:17:57;;;;;;;56.80;2.10;;;;;;;;;;5032559;28;20457;-69
2023/06/24 09:20:25;;;;;;;56.47;1.83;;;;;;;;;;5042409;28;20471;-69
2023/06/24 09:22:52;;;;;;;56.57;2.13;;;;;;;;;;5052443;28;20457;-70
2023/06/24 09:25:19;;;;;;;57.83;2.20;;;;;;;;;;5052414;28;20441;-70
2023/06/24 09:27:50;;;;;;;56.73;2.30;;;;;;;;;;5052266;28;20499;-70
2023/06/24 09:30:20;;;;;;;56.47;2.10;;;;;;;;;;5049025;28;20444;-70
2023/06/24 09:32:49;;;;;;;56.47;2.00;;;;;;;;;;5052267;28;20960;-70
2023/06/24 09:35:19;;;;;;;56.43;2.00;;;;;;;;;;5052791;28;20455;-70
2023/06/24 09:37:50;;;;;;;56.07;1.73;;;;;;;;;;5052798;28;20445;-70
2023/06/24 09:40:17;;;;;;;56.47;1.80;;;;;;;;;;5051882;28;20964;-70
2023/06/24 09:42:49;;;;;;;56.37;1.70;;;;;;;;;;5052591;28;20535;-70
2023/06/24 09:45:16;;;;;;;55.87;2.00;;;;;;;;;;5052433;28;20433;-70
2023/06/24 09:47:43;;;;;;;56.57;2.67;;;;;;;;;;5052249;28;21004;-70
2023/06/24 09:50:12;;;;;;;56.67;1.80;;;;;;;;;;5051559;28;20452;-70
2023/06/24 09:52:40;;;;;;;56.90;2.00;;;;;;;;;;5052429;28;20451;-70
2023/06/24 09:55:08;;;;;;;56.37;1.83;;;;;;;;;;5052171;28;20819;-69
2023/06/24 09:57:37;;;;;;;56.90;2.40;;;;;;;;;;5051909;28;20433;-70
2023/06/24 10:00:04;;;;;;;56.57;2.47;;;;;;;;;;5051243;28;20458;-69
2023/06/24 10:02:32;;;;;;;56.60;2.00;;;;;;;;;;5052073;28;20448;-70
2023/06/24 10:05:01;;;;;;;56.80;2.00;;;;;;;;;;5051746;28;20479;-70
2023/06/24 10:07:30;;;;;;;57.47;2.10;;;;;;;;;;5051884;28;20445;-71
2023/06/24 10:09:57;;;;;;;56.53;2.10;;;;;;;;;;5051327;28;20453;-71
2023/06/24 10:12:26;;;;;;;56.17;1.80;;;;;;;;;;5052045;28;20444;-71
2023/06/24 10:14:53;;;;;;;55.80;1.90;;;;;;;;;;5051615;28;20480;-71
2023/06/24 10:17:20;;;;;;;56.70;2.00;;;;;;;;;;5051587;28;20448;-69
2023/06/24 10:19:47;;;;;;;56.50;2.10;;;;;;;;;;5050860;28;20451;-70
2023/06/24 10:22:15;;;;;;;56.37;2.93;;;;;;;;;;5051674;28;20548;-69
2023/06/24 10:24:44;;;;;;;56.30;1.90;;;;;;;;;;5051493;28;20472;-70
2023/06/24 10:27:17;;;;;;;56.70;2.30;;;;;;;;;;5051823;28;20510;-70
2023/06/24 10:29:46;;;;;;;56.30;1.80;;;;;;;;;;5050979;28;20429;-70
2023/06/24 10:32:13;;;;;;;57.00;2.27;;;;;;;;;;5051726;28;20448;-70
2023/06/24 10:34:41;;;;;;;56.50;2.17;;;;;;;;;;5051537;28;20480;-70
2023/06/24 10:37:13;;;;;;;56.17;1.87;;;;;;;;;;5051327;28;20466;-71
2023/06/24 10:39:41;;;;;;;56.23;2.00;;;;;;;;;;5050727;28;20452;-70
2023/06/24 10:42:28;;;;;;;56.37;1.83;;;;;;;;;;5051175;28;20467;-70
2023/06/24 10:44:56;;;;;;;55.87;1.73;;;;;;;;;;5051198;28;20847;-70
2023/06/24 10:47:23;;;;;;;56.37;2.10;;;;;;;;;;5051480;28;20811;-70
2023/06/24 10:49:51;;;;;;;56.07;2.07;;;;;;;;;;5050787;28;20440;-70
2023/06/24 10:52:20;;;;;;;57.17;2.60;;;;;;;;;;5051437;28;20813;-70
2023/06/24 10:54:47;;;;;;;57.00;2.17;;;;;;;;;;5050953;28;20472;-70
2023/06/24 10:57:14;;;;;;;57.37;1.90;;;;;;;;;;5050917;28;20456;-70
2023/06/24 10:59:43;;;;;;;56.30;2.10;;;;;;;;;;5050720;28;20546;-71
2023/06/24 11:02:11;;;;;;;56.90;2.17;;;;;;;;;;5051142;28;20448;-71
2023/06/24 11:04:44;;;;;;;56.30;2.10;;;;;;;;;;5051238;28;20464;-71
2023/06/24 11:07:11;;;;;;;55.70;1.70;;;;;;;;;;5050865;28;20448;-71
2023/06/24 11:09:38;;;;;;;55.60;1.70;;;;;;;;;;5050049;28;21031;-71
2023/06/24 11:12:05;;;;;;;56.17;2.20;;;;;;;;;;5051134;28;20444;-71
2023/06/24 11:14:34;;;;;;;55.57;1.63;;;;;;;;;;5051129;28;20487;-71
2023/06/24 11:17:03;;;;;;;55.40;1.60;;;;;;;;;;5050895;28;20502;-71
2023/06/24 11:19:31;;;;;;;56.70;2.53;;;;;;;;;;5050217;28;20447;-71
2023/06/24 11:22:00;;;;;;;55.50;1.97;;;;;;;;;;5051027;28;20449;-71
2023/06/24 11:24:27;;;;;;;55.40;2.23;;;;;;;;;;5050900;28;21027;-71
2023/06/24 11:26:55;;;;;;;54.97;1.70;;;;;;;;;;5051128;28;20450;-69
2023/06/24 11:29:22;;;;;;;55.23;2.10;;;;;;;;;;5051196;28;20479;-68
2023/06/24 11:31:49;;;;;;;55.20;2.43;;;;;;;;;;5054868;28;20455;-69
2023/06/24 11:34:18;;;;;;;55.40;1.90;;;;;;;;;;5054907;28;20468;-69
2023/06/24 11:36:45;;;;;;;55.10;2.03;;;;;;;;;;5054931;28;20452;-69
2023/06/24 11:39:22;;;;;;;55.53;2.20;;;;;;;;;;5054044;28;20459;-69
2023/06/24 11:41:49;;;;;;;55.77;2.23;;;;;;;;;;5054854;28;20455;-70
2023/06/24 11:44:16;;;;;;;55.50;2.07;;;;;;;;;;5054835;28;20468;-69
2023/06/24 11:46:43;;;;;;;55.53;2.00;;;;;;;;;;5054435;28;20455;-69
2023/06/24 11:49:11;;;;;;;55.90;1.80;;;;;;;;;;5053787;28;20996;-70
2023/06/24 11:51:47;;;;;;;55.80;1.80;;;;;;;;;;5054270;28;21013;-69
2023/06/24 11:54:14;;;;;;;55.90;2.37;;;;;;;;;;5054529;28;20463;-70
2023/06/24 11:56:41;;;;;;;55.60;2.17;;;;;;;;;;5054119;28;20456;-70
2023/06/24 11:59:09;;;;;;;55.03;1.73;;;;;;;;;;5053991;28;20570;-71
2023/06/24 12:01:37;;;;;;;55.20;1.67;;;;;;;;;;5054599;28;20448;-70
2023/06/24 12:04:11;;;;;;;55.17;1.93;;;;;;;;;;5054342;28;20468;-70
2023/06/24 12:06:39;;;;;;;55.07;2.07;;;;;;;;;;5054379;28;20540;-70
2023/06/24 12:09:06;;;;;;;55.30;2.00;;;;;;;;;;5053319;28;20492;-71
2023/06/24 12:11:34;;;;;;;54.87;2.20;;;;;;;;;;5054056;28;20994;-70
2023/06/24 12:14:01;;;;;;;55.07;2.20;;;;;;;;;;5054113;28;20467;-70
2023/06/24 12:16:28;;;;;;;54.90;1.80;;;;;;;;;;5054145;28;20452;-70
2023/06/24 12:18:55;;;;;;;55.70;1.80;;;;;;;;;;5053498;28;20444;-70
2023/06/24 12:21:22;;;;;;;54.83;2.07;;;;;;;;;;5054205;28;20452;-70
2023/06/24 12:23:50;;;;;;;55.07;1.90;;;;;;;;;;5053671;28;20998;-70
2023/06/24 12:26:18;;;;;;;55.10;2.03;;;;;;;;;;5053892;28;20452;-70
2023/06/24 12:28:45;;;;;;;55.00;2.00;;;;;;;;;;5052867;28;20837;-71
2023/06/24 12:31:12;;;;;;;55.27;2.20;;;;;;;;;;5054270;28;20455;-70
2023/06/24 12:33:39;;;;;;;54.87;1.80;;;;;;;;;;5053617;28;21015;-70
2023/06/24 12:36:07;;;;;;;55.30;2.00;;;;;;;;;;5053636;28;20470;-71
2023/06/24 12:38:35;;;;;;;55.70;1.80;;;;;;;;;;5052921;28;20444;-70
2023/06/24 12:41:04;;;;;;;55.03;1.60;;;;;;;;;;5052561;28;21008;-71
2023/06/24 12:43:31;;;;;;;55.97;1.80;;;;;;;;;;5053249;28;20472;-70
2023/06/24 12:45:58;;;;;;;56.10;2.10;;;;;;;;;;5053296;28;20964;-70
2023/06/24 12:48:25;;;;;;;55.80;1.83;;;;;;;;;;5053349;28;20859;-70
2023/06/24 12:50:53;;;;;;;56.00;1.93;;;;;;;;;;5053126;28;20467;-70
2023/06/24 12:53:20;;;;;;;56.00;2.20;;;;;;;;;;5053071;28;20555;-70
2023/06/24 12:55:47;;;;;;;55.87;2.07;;;;;;;;;;5053162;28;20478;-70
2023/06/24 12:58:16;;;;;;;56.10;1.90;;;;;;;;;;5053067;28;20971;-70
2023/06/24 13:00:43;;;;;;;55.17;1.77;;;;;;;;;;5052465;28;20448;-70
2023/06/24 13:03:10;;;;;;;54.93;1.70;;;;;;;;;;5052960;28;20985;-71
2023/06/24 13:05:37;;;;;;;55.80;2.83;;;;;;;;;;5053278;28;20787;-70
2023/06/24 13:08:06;;;;;;;55.10;1.77;;;;;;;;;;5053143;28;20444;-70
2023/06/24 13:10:33;;;;;;;55.10;2.10;;;;;;;;;;5052460;28;20545;-71
2023/06/24 13:13:00;;;;;;;55.50;2.37;;;;;;;;;;5053023;28;20455;-71
2023/06/24 13:15:29;;;;;;;55.20;2.20;;;;;;;;;;5052815;28;20551;-71
2023/06/24 13:17:56;;;;;;;55.10;2.00;;;;;;;;;;5052966;28;20444;-71
2023/06/24 13:20:23;;;;;;;54.67;1.70;;;;;;;;;;5052329;28;20484;-71
2023/06/24 13:22:50;;;;;;;54.97;2.03;;;;;;;;;;5052916;28;20460;-71
2023/06/24 13:25:17;;;;;;;54.90;2.20;;;;;;;;;;5052877;28;20453;-71
2023/06/24 13:27:44;;;;;;;55.10;1.90;;;;;;;;;;5052953;28;20444;-71
2023/06/24 13:30:14;;;;;;;55.10;2.63;;;;;;;;;;5051944;28;20471;-71
2023/06/24 13:32:43;;;;;;;54.77;1.93;;;;;;;;;;5053114;28;20440;-71
2023/06/24 13:35:10;;;;;;;55.40;1.97;;;;;;;;;;5052650;28;20578;-71
2023/06/24 13:37:39;;;;;;;54.57;1.60;;;;;;;;;;5052573;28;20444;-71
2023/06/24 13:40:06;;;;;;;55.30;1.90;;;;;;;;;;5052009;28;20475;-71
2023/06/24 13:42:33;;;;;;;54.67;1.67;;;;;;;;;;5052389;28;20457;-71
2023/06/24 13:45:01;;;;;;;54.73;1.50;;;;;;;;;;5052239;28;21016;-71
2023/06/24 13:47:28;;;;;;;55.37;2.07;;;;;;;;;;5052395;28;20444;-70
2023/06/24 13:49:58;;;;;;;54.77;1.73;;;;;;;;;;5051694;28;20993;-70
2023/06/24 13:52:25;;;;;;;54.80;1.80;;;;;;;;;;5052499;28;20433;-71
2023/06/24 13:54:53;;;;;;;55.20;1.90;;;;;;;;;;5051889;28;20996;-71
2023/06/24 13:57:20;;;;;;;54.80;1.97;;;;;;;;;;5052547;28;20444;-71
2023/06/24 13:59:47;;;;;;;54.60;1.83;;;;;;;;;;5051763;28;20480;-71
2023/06/24 14:02:14;;;;;;;54.80;1.80;;;;;;;;;;5051785;28;20456;-71
2023/06/24 14:04:41;;;;;;;54.60;2.00;;;;;;;;;;5052065;28;20844;-71
2023/06/24 14:07:09;;;;;;;56.03;2.10;;;;;;;;;;5051956;28;20459;-70
2023/06/24 14:09:37;;;;;;;54.50;2.00;;;;;;;;;;5051440;28;20463;-71
2023/06/24 14:12:04;;;;;;;54.37;1.80;;;;;;;;;;5051872;28;20452;-71
2023/06/24 14:14:31;;;;;;;54.67;2.00;;;;;;;;;;5051874;28;20471;-71
2023/06/24 14:16:58;;;;;;;54.70;2.00;;;;;;;;;;5051785;28;20467;-71
2023/06/24 14:19:26;;;;;;;55.87;3.10;;;;;;;;;;5050853;28;20480;-71
2023/06/24 14:21:53;;;;;;;55.77;2.27;;;;;;;;;;5051627;28;20940;-70
2023/06/24 14:24:21;;;;;;;54.60;1.70;;;;;;;;;;5051435;28;21007;-71
2023/06/24 14:26:49;;;;;;;54.70;1.90;;;;;;;;;;5051469;28;20823;-71
2023/06/24 14:29:16;;;;;;;54.77;1.80;;;;;;;;;;5050721;28;20444;-70
2023/06/24 14:31:44;;;;;;;54.50;1.97;;;;;;;;;;5051650;28;20475;-71
2023/06/24 14:34:11;;;;;;;55.37;2.00;;;;;;;;;;5051377;28;20476;-70
2023/06/24 14:36:38;;;;;;;55.27;2.40;;;;;;;;;;5051327;28;20949;-70
2023/06/24 14:39:05;;;;;;;54.90;1.87;;;;;;;;;;5050739;28;20484;-71
2023/06/24 14:41:33;;;;;;;54.50;1.50;;;;;;;;;;5051271;28;20483;-70
2023/06/24 14:44:00;;;;;;;54.60;1.77;;;;;;;;;;5051372;28;20506;-70
2023/06/24 14:46:28;;;;;;;55.23;2.30;;;;;;;;;;5051143;28;20457;-70
2023/06/24 14:48:55;;;;;;;55.10;1.97;;;;;;;;;;5050425;28;20471;-70
2023/06/24 14:51:22;;;;;;;55.00;1.70;;;;;;;;;;5051234;28;20764;-71
2023/06/24 14:53:49;;;;;;;55.17;2.03;;;;;;;;;;5051310;28;20487;-71